sensor_id;sensor_type;location;lat;lon;timestamp;temperature;humidity
45435;DHT22;31183;47.404;8.500;2023-07-20T00:02:17;22.70;79.70
45435;DHT22;31183;47.404;8.500;2023-07-20T00:05:01;22.70;79.20
45435;DHT22;31183;47.404;8.500;2023-07-20T00:07:28;22.70;80.10
45435;DHT22;31183;47.404;8.500;2023-07-20T00:09:55;22.70;80.40
45435;DHT22;31183;47.404;8.500;2023-07-20T00:12:21;22.70;80.30
45435;DHT22;31183;47.404;8.500;2023-07-20T00:14:48;22.70;80.50
45435;DHT22;31183;47.404;8.500;2023-07-20T00:17:15;22.70;80.70
45435;DHT22;31183;47.404;8.500;2023-07-20T00:19:41;22.70;80.30
45435;DHT22;31183;47.404;8.500;2023-07-20T00:22:08;22.60;80.50
45435;DHT22;31183;47.404;8.500;2023-07-20T00:24:35;22.60;80.60
45435;DHT22;31183;47.404;8.500;2023-07-20T00:27:01;22.60;80.70
45435;DHT22;31183;47.404;8.500;2023-07-20T00:29:29;22.60;81.20
45435;DHT22;31183;47.404;8.500;2023-07-20T00:31:55;22.60;81.20
45435;DHT22;31183;47.404;8.500;2023-07-20T00:34:22;22.60;81.70
45435;DHT22;31183;47.404;8.500;2023-07-20T00:36:49;22.60;81.70
45435;DHT22;31183;47.404;8.500;2023-07-20T00:39:15;22.70;81.80
45435;DHT22;31183;47.404;8.500;2023-07-20T00:41:42;22.70;81.60
45435;DHT22;31183;47.404;8.500;2023-07-20T00:44:09;22.60;81.50
45435;DHT22;31183;47.404;8.500;2023-07-20T00:46:35;22.60;80.90
45435;DHT22;31183;47.404;8.500;2023-07-20T00:49:02;22.60;81.30
45435;DHT22;31183;47.404;8.500;2023-07-20T00:51:29;22.60;81.10
45435;DHT22;31183;47.404;8.500;2023-07-20T00:53:56;22.60;81.10
45435;DHT22;31183;47.404;8.500;2023-07-20T00:56:22;22.60;80.80
45435;DHT22;31183;47.404;8.500;2023-07-20T00:58:50;22.60;80.90
45435;DHT22;31183;47.404;8.500;2023-07-20T01:01:17;22.60;81.30
45435;DHT22;31183;47.404;8.500;2023-07-20T01:03:43;22.60;81.20
45435;DHT22;31183;47.404;8.500;2023-07-20T01:08:40;22.60;80.90
45435;DHT22;31183;47.404;8.500;2023-07-20T01:11:16;22.60;81.30
45435;DHT22;31183;47.404;8.500;2023-07-20T01:13:47;22.60;80.50
45435;DHT22;31183;47.404;8.500;2023-07-20T01:16:13;22.60;81.20
45435;DHT22;31183;47.404;8.500;2023-07-20T01:18:40;22.60;80.20
45435;DHT22;31183;47.404;8.500;2023-07-20T01:21:09;22.50;80.50
45435;DHT22;31183;47.404;8.500;2023-07-20T01:26:26;22.50;80.40
45435;DHT22;31183;47.404;8.500;2023-07-20T01:29:08;22.50;80.10
45435;DHT22;31183;47.404;8.500;2023-07-20T01:31:37;22.50;80.50
45435;DHT22;31183;47.404;8.500;2023-07-20T01:34:05;22.50;80.60
45435;DHT22;31183;47.404;8.500;2023-07-20T01:36:34;22.50;80.30
45435;DHT22;31183;47.404;8.500;2023-07-20T01:39:00;22.50;80.10
45435;DHT22;31183;47.404;8.500;2023-07-20T01:41:28;22.50;80.60
45435;DHT22;31183;47.404;8.500;2023-07-20T01:43:58;22.40;80.20
45435;DHT22;31183;47.404;8.500;2023-07-20T01:46:25;22.40;80.40
45435;DHT22;31183;47.404;8.500;2023-07-20T01:48:53;22.40;80.40
45435;DHT22;31183;47.404;8.500;2023-07-20T01:51:20;22.40;80.20
45435;DHT22;31183;47.404;8.500;2023-07-20T01:53:46;22.40;80.90
45435;DHT22;31183;47.404;8.500;2023-07-20T01:56:13;22.40;79.80
45435;DHT22;31183;47.404;8.500;2023-07-20T01:58:40;22.40;80.30
45435;DHT22;31183;47.404;8.500;2023-07-20T02:01:06;22.40;80.30
45435;DHT22;31183;47.404;8.500;2023-07-20T02:03:33;22.30;79.90
45435;DHT22;31183;47.404;8.500;2023-07-20T02:05:59;22.30;80.40
45435;DHT22;31183;47.404;8.500;2023-07-20T02:08:26;22.30;80.60
45435;DHT22;31183;47.404;8.500;2023-07-20T02:10:52;22.30;80.90
45435;DHT22;31183;47.404;8.500;2023-07-20T02:13:19;22.30;80.90
45435;DHT22;31183;47.404;8.500;2023-07-20T02:15:46;22.30;80.80
45435;DHT22;31183;47.404;8.500;2023-07-20T02:18:13;22.30;80.80
45435;DHT22;31183;47.404;8.500;2023-07-20T02:20:40;22.30;80.90
45435;DHT22;31183;47.404;8.500;2023-07-20T02:23:07;22.40;80.90
45435;DHT22;31183;47.404;8.500;2023-07-20T02:25:34;22.30;80.40
45435;DHT22;31183;47.404;8.500;2023-07-20T02:28:00;22.30;79.60
45435;DHT22;31183;47.404;8.500;2023-07-20T02:30:27;22.30;81.20
45435;DHT22;31183;47.404;8.500;2023-07-20T02:32:54;22.30;81.00
45435;DHT22;31183;47.404;8.500;2023-07-20T02:35:20;22.20;77.80
45435;DHT22;31183;47.404;8.500;2023-07-20T02:37:47;21.90;79.60
45435;DHT22;31183;47.404;8.500;2023-07-20T02:40:14;22.10;81.40
45435;DHT22;31183;47.404;8.500;2023-07-20T02:42:40;22.00;80.80
45435;DHT22;31183;47.404;8.500;2023-07-20T02:45:07;22.10;81.20
45435;DHT22;31183;47.404;8.500;2023-07-20T02:47:33;21.90;78.50
45435;DHT22;31183;47.404;8.500;2023-07-20T02:50:00;21.70;78.10
45435;DHT22;31183;47.404;8.500;2023-07-20T02:52:27;21.70;78.80
45435;DHT22;31183;47.404;8.500;2023-07-20T02:54:54;21.70;79.80
45435;DHT22;31183;47.404;8.500;2023-07-20T02:57:20;21.80;79.70
45435;DHT22;31183;47.404;8.500;2023-07-20T02:59:47;21.80;78.80
45435;DHT22;31183;47.404;8.500;2023-07-20T03:02:13;21.70;78.40
45435;DHT22;31183;47.404;8.500;2023-07-20T03:04:40;21.70;79.70
45435;DHT22;31183;47.404;8.500;2023-07-20T03:07:06;21.80;80.90
45435;DHT22;31183;47.404;8.500;2023-07-20T03:09:34;22.00;81.30
45435;DHT22;31183;47.404;8.500;2023-07-20T03:12:00;22.00;80.30
45435;DHT22;31183;47.404;8.500;2023-07-20T03:14:27;22.10;80.90
45435;DHT22;31183;47.404;8.500;2023-07-20T03:16:54;22.10;80.70
45435;DHT22;31183;47.404;8.500;2023-07-20T03:19:21;22.20;80.80
45435;DHT22;31183;47.404;8.500;2023-07-20T03:21:47;22.20;80.70
45435;DHT22;31183;47.404;8.500;2023-07-20T03:24:14;22.20;80.10
45435;DHT22;31183;47.404;8.500;2023-07-20T03:26:41;22.00;78.20
45435;DHT22;31183;47.404;8.500;2023-07-20T03:29:07;21.90;80.10
45435;DHT22;31183;47.404;8.500;2023-07-20T03:31:34;22.00;81.10
45435;DHT22;31183;47.404;8.500;2023-07-20T03:34:01;22.00;80.90
45435;DHT22;31183;47.404;8.500;2023-07-20T03:36:27;22.10;80.40
45435;DHT22;31183;47.404;8.500;2023-07-20T03:38:54;22.20;80.70
45435;DHT22;31183;47.404;8.500;2023-07-20T03:41:21;22.20;80.50
45435;DHT22;31183;47.404;8.500;2023-07-20T03:43:48;22.20;80.50
45435;DHT22;31183;47.404;8.500;2023-07-20T03:46:15;22.20;80.40
45435;DHT22;31183;47.404;8.500;2023-07-20T03:48:42;22.20;80.50
45435;DHT22;31183;47.404;8.500;2023-07-20T03:51:08;22.20;80.00
45435;DHT22;31183;47.404;8.500;2023-07-20T03:53:35;22.20;80.00
45435;DHT22;31183;47.404;8.500;2023-07-20T03:56:01;22.20;80.40
45435;DHT22;31183;47.404;8.500;2023-07-20T03:58:28;22.20;80.30
45435;DHT22;31183;47.404;8.500;2023-07-20T04:00:56;22.20;80.20
45435;DHT22;31183;47.404;8.500;2023-07-20T04:03:23;22.20;80.30
45435;DHT22;31183;47.404;8.500;2023-07-20T04:05:53;22.10;80.60
45435;DHT22;31183;47.404;8.500;2023-07-20T04:08:19;22.10;80.70
45435;DHT22;31183;47.404;8.500;2023-07-20T04:10:46;22.10;80.50
45435;DHT22;31183;47.404;8.500;2023-07-20T04:13:13;22.10;80.30
45435;DHT22;31183;47.404;8.500;2023-07-20T04:15:39;22.10;80.50
45435;DHT22;31183;47.404;8.500;2023-07-20T04:18:06;22.10;80.60
45435;DHT22;31183;47.404;8.500;2023-07-20T04:20:32;22.10;80.60
45435;DHT22;31183;47.404;8.500;2023-07-20T04:22:59;22.00;80.50
45435;DHT22;31183;47.404;8.500;2023-07-20T04:25:25;21.90;81.00
45435;DHT22;31183;47.404;8.500;2023-07-20T04:27:52;21.90;79.10
45435;DHT22;31183;47.404;8.500;2023-07-20T04:30:19;21.80;79.50
45435;DHT22;31183;47.404;8.500;2023-07-20T04:32:48;21.90;81.70
45435;DHT22;31183;47.404;8.500;2023-07-20T04:38:04;21.90;81.00
45435;DHT22;31183;47.404;8.500;2023-07-20T04:40:31;21.80;80.80
45435;DHT22;31183;47.404;8.500;2023-07-20T04:42:58;21.80;80.00
45435;DHT22;31183;47.404;8.500;2023-07-20T04:45:24;21.90;81.80
45435;DHT22;31183;47.404;8.500;2023-07-20T04:47:51;21.90;81.20
45435;DHT22;31183;47.404;8.500;2023-07-20T04:50:17;22.00;81.20
45435;DHT22;31183;47.404;8.500;2023-07-20T04:52:44;21.90;81.30
45435;DHT22;31183;47.404;8.500;2023-07-20T04:55:12;22.00;81.30
45435;DHT22;31183;47.404;8.500;2023-07-20T04:57:39;22.00;81.20
45435;DHT22;31183;47.404;8.500;2023-07-20T05:00:05;22.00;81.10
45435;DHT22;31183;47.404;8.500;2023-07-20T05:02:32;22.00;81.00
45435;DHT22;31183;47.404;8.500;2023-07-20T05:04:59;22.00;81.00
45435;DHT22;31183;47.404;8.500;2023-07-20T05:07:26;22.00;81.00
45435;DHT22;31183;47.404;8.500;2023-07-20T05:09:52;22.00;81.00
45435;DHT22;31183;47.404;8.500;2023-07-20T05:12:19;22.00;80.90
45435;DHT22;31183;47.404;8.500;2023-07-20T05:14:46;22.00;81.00
45435;DHT22;31183;47.404;8.500;2023-07-20T05:17:13;22.00;81.10
45435;DHT22;31183;47.404;8.500;2023-07-20T05:19:39;22.00;81.10
45435;DHT22;31183;47.404;8.500;2023-07-20T05:22:10;22.00;81.10
45435;DHT22;31183;47.404;8.500;2023-07-20T05:24:38;22.00;81.10
45435;DHT22;31183;47.404;8.500;2023-07-20T05:27:05;22.00;81.30
45435;DHT22;31183;47.404;8.500;2023-07-20T05:29:31;22.00;81.40
45435;DHT22;31183;47.404;8.500;2023-07-20T05:31:59;22.10;81.60
45435;DHT22;31183;47.404;8.500;2023-07-20T05:34:26;22.20;81.50
45435;DHT22;31183;47.404;8.500;2023-07-20T05:36:52;22.20;81.60
45435;DHT22;31183;47.404;8.500;2023-07-20T05:39:19;22.20;81.80
45435;DHT22;31183;47.404;8.500;2023-07-20T05:41:45;22.20;81.70
45435;DHT22;31183;47.404;8.500;2023-07-20T05:44:12;22.20;81.70
45435;DHT22;31183;47.404;8.500;2023-07-20T05:46:38;22.30;81.80
45435;DHT22;31183;47.404;8.500;2023-07-20T05:49:20;22.30;81.50
45435;DHT22;31183;47.404;8.500;2023-07-20T05:51:47;22.30;81.40
45435;DHT22;31183;47.404;8.500;2023-07-20T05:54:14;22.30;81.70
45435;DHT22;31183;47.404;8.500;2023-07-20T05:56:40;22.20;81.50
45435;DHT22;31183;47.404;8.500;2023-07-20T05:59:07;22.20;82.30
45435;DHT22;31183;47.404;8.500;2023-07-20T06:01:34;22.20;82.30
45435;DHT22;31183;47.404;8.500;2023-07-20T06:04:00;22.30;82.60
45435;DHT22;31183;47.404;8.500;2023-07-20T06:06:27;22.30;82.40
45435;DHT22;31183;47.404;8.500;2023-07-20T06:08:53;22.40;82.30
45435;DHT22;31183;47.404;8.500;2023-07-20T06:11:21;22.50;81.90
45435;DHT22;31183;47.404;8.500;2023-07-20T06:13:47;22.50;81.10
45435;DHT22;31183;47.404;8.500;2023-07-20T06:16:14;22.50;81.80
45435;DHT22;31183;47.404;8.500;2023-07-20T06:18:40;22.50;81.90
45435;DHT22;31183;47.404;8.500;2023-07-20T06:21:07;22.40;81.40
45435;DHT22;31183;47.404;8.500;2023-07-20T06:23:33;22.40;81.50
45435;DHT22;31183;47.404;8.500;2023-07-20T06:26:00;22.40;82.40
45435;DHT22;31183;47.404;8.500;2023-07-20T06:28:27;22.40;82.60
45435;DHT22;31183;47.404;8.500;2023-07-20T06:30:58;22.50;82.50
45435;DHT22;31183;47.404;8.500;2023-07-20T06:33:25;22.50;82.30
45435;DHT22;31183;47.404;8.500;2023-07-20T06:35:52;22.50;82.30
45435;DHT22;31183;47.404;8.500;2023-07-20T06:38:19;22.60;82.60
45435;DHT22;31183;47.404;8.500;2023-07-20T06:40:49;22.70;82.40
45435;DHT22;31183;47.404;8.500;2023-07-20T06:43:16;22.80;82.00
45435;DHT22;31183;47.404;8.500;2023-07-20T06:45:50;22.80;81.70
45435;DHT22;31183;47.404;8.500;2023-07-20T06:48:17;22.80;80.50
45435;DHT22;31183;47.404;8.500;2023-07-20T06:50:44;22.90;81.10
45435;DHT22;31183;47.404;8.500;2023-07-20T06:53:10;22.90;81.80
45435;DHT22;31183;47.404;8.500;2023-07-20T06:55:37;23.10;81.20
45435;DHT22;31183;47.404;8.500;2023-07-20T06:58:08;23.40;80.70
45435;DHT22;31183;47.404;8.500;2023-07-20T07:00:34;23.40;78.90
45435;DHT22;31183;47.404;8.500;2023-07-20T07:03:01;23.20;79.70
45435;DHT22;31183;47.404;8.500;2023-07-20T07:05:29;23.20;80.60
45435;DHT22;31183;47.404;8.500;2023-07-20T07:08:01;23.20;81.30
45435;DHT22;31183;47.404;8.500;2023-07-20T07:10:28;23.30;81.40
45435;DHT22;31183;47.404;8.500;2023-07-20T07:12:54;23.40;81.10
45435;DHT22;31183;47.404;8.500;2023-07-20T07:15:21;23.50;80.20
45435;DHT22;31183;47.404;8.500;2023-07-20T07:17:48;23.50;81.30
45435;DHT22;31183;47.404;8.500;2023-07-20T07:20:14;23.50;81.00
45435;DHT22;31183;47.404;8.500;2023-07-20T07:22:44;23.50;81.40
45435;DHT22;31183;47.404;8.500;2023-07-20T07:25:12;23.60;81.20
45435;DHT22;31183;47.404;8.500;2023-07-20T07:27:39;23.80;80.70
45435;DHT22;31183;47.404;8.500;2023-07-20T07:30:05;23.90;81.20
45435;DHT22;31183;47.404;8.500;2023-07-20T07:32:32;23.90;79.30
45435;DHT22;31183;47.404;8.500;2023-07-20T07:46:53;23.90;80.10
45435;DHT22;31183;47.404;8.500;2023-07-20T07:49:20;24.40;77.80
45435;DHT22;31183;47.404;8.500;2023-07-20T07:51:46;24.40;77.00
45435;DHT22;31183;47.404;8.500;2023-07-20T07:54:13;24.40;77.10
45435;DHT22;31183;47.404;8.500;2023-07-20T07:56:40;24.20;77.40
45435;DHT22;31183;47.404;8.500;2023-07-20T07:59:07;24.30;77.90
45435;DHT22;31183;47.404;8.500;2023-07-20T08:01:34;24.50;77.10
45435;DHT22;31183;47.404;8.500;2023-07-20T08:04:01;24.80;75.40
45435;DHT22;31183;47.404;8.500;2023-07-20T08:06:28;25.10;75.50
45435;DHT22;31183;47.404;8.500;2023-07-20T08:08:54;25.30;74.90
45435;DHT22;31183;47.404;8.500;2023-07-20T08:11:21;25.30;74.70
45435;DHT22;31183;47.404;8.500;2023-07-20T08:13:48;25.40;74.90
45435;DHT22;31183;47.404;8.500;2023-07-20T08:16:15;25.60;74.70
45435;DHT22;31183;47.404;8.500;2023-07-20T08:18:42;25.70;72.10
45435;DHT22;31183;47.404;8.500;2023-07-20T08:21:09;25.80;71.20
45435;DHT22;31183;47.404;8.500;2023-07-20T08:23:35;25.90;71.50
45435;DHT22;31183;47.404;8.500;2023-07-20T08:26:02;25.90;71.40
45435;DHT22;31183;47.404;8.500;2023-07-20T08:28:30;25.80;72.20
45435;DHT22;31183;47.404;8.500;2023-07-20T08:30:56;25.60;72.10
45435;DHT22;31183;47.404;8.500;2023-07-20T08:33:23;25.40;73.00
45435;DHT22;31183;47.404;8.500;2023-07-20T08:35:50;25.40;73.20
45435;DHT22;31183;47.404;8.500;2023-07-20T08:38:17;25.60;71.70
45435;DHT22;31183;47.404;8.500;2023-07-20T08:40:45;25.70;69.90
45435;DHT22;31183;47.404;8.500;2023-07-20T08:43:14;25.70;68.90
45435;DHT22;31183;47.404;8.500;2023-07-20T08:45:44;25.70;69.30
45435;DHT22;31183;47.404;8.500;2023-07-20T08:48:12;25.90;68.60
45435;DHT22;31183;47.404;8.500;2023-07-20T08:50:39;26.00;66.90
45435;DHT22;31183;47.404;8.500;2023-07-20T08:53:08;26.10;67.50
45435;DHT22;31183;47.404;8.500;2023-07-20T08:55:36;26.20;68.40
45435;DHT22;31183;47.404;8.500;2023-07-20T08:58:05;26.40;67.70
45435;DHT22;31183;47.404;8.500;2023-07-20T09:00:34;26.50;67.60
45435;DHT22;31183;47.404;8.500;2023-07-20T09:03:03;26.60;66.20
45435;DHT22;31183;47.404;8.500;2023-07-20T09:05:30;26.70;66.20
45435;DHT22;31183;47.404;8.500;2023-07-20T09:07:59;26.70;66.80
45435;DHT22;31183;47.404;8.500;2023-07-20T09:10:26;26.80;66.70
45435;DHT22;31183;47.404;8.500;2023-07-20T09:12:53;27.00;67.20
45435;DHT22;31183;47.404;8.500;2023-07-20T09:15:20;27.00;68.20
45435;DHT22;31183;47.404;8.500;2023-07-20T09:17:47;26.90;67.70
45435;DHT22;31183;47.404;8.500;2023-07-20T09:20:16;26.50;67.10
45435;DHT22;31183;47.404;8.500;2023-07-20T09:22:47;26.50;69.00
45435;DHT22;31183;47.404;8.500;2023-07-20T09:25:17;26.50;69.00
45435;DHT22;31183;47.404;8.500;2023-07-20T09:27:48;26.40;67.50
45435;DHT22;31183;47.404;8.500;2023-07-20T09:30:18;26.00;65.90
45435;DHT22;31183;47.404;8.500;2023-07-20T09:32:46;25.60;64.60
45435;DHT22;31183;47.404;8.500;2023-07-20T09:35:19;25.50;68.20
45435;DHT22;31183;47.404;8.500;2023-07-20T09:37:58;25.60;69.10
45435;DHT22;31183;47.404;8.500;2023-07-20T09:40:28;25.90;68.40
45435;DHT22;31183;47.404;8.500;2023-07-20T09:42:59;26.10;69.40
45435;DHT22;31183;47.404;8.500;2023-07-20T09:45:41;26.20;68.20
45435;DHT22;31183;47.404;8.500;2023-07-20T09:48:11;26.20;67.00
45435;DHT22;31183;47.404;8.500;2023-07-20T09:50:43;26.20;67.80
45435;DHT22;31183;47.404;8.500;2023-07-20T09:53:15;26.10;67.20
45435;DHT22;31183;47.404;8.500;2023-07-20T09:55:44;26.00;66.20
45435;DHT22;31183;47.404;8.500;2023-07-20T09:58:11;25.90;67.20
45435;DHT22;31183;47.404;8.500;2023-07-20T10:00:39;25.80;66.80
45435;DHT22;31183;47.404;8.500;2023-07-20T10:03:10;25.80;67.00
45435;DHT22;31183;47.404;8.500;2023-07-20T10:05:43;25.90;68.20
45435;DHT22;31183;47.404;8.500;2023-07-20T10:08:12;25.90;66.50
45435;DHT22;31183;47.404;8.500;2023-07-20T10:10:42;25.90;67.10
45435;DHT22;31183;47.404;8.500;2023-07-20T10:13:18;25.90;64.90
45435;DHT22;31183;47.404;8.500;2023-07-20T10:15:54;25.80;65.80
45435;DHT22;31183;47.404;8.500;2023-07-20T10:18:28;25.80;67.30
45435;DHT22;31183;47.404;8.500;2023-07-20T10:20:56;25.80;67.50
45435;DHT22;31183;47.404;8.500;2023-07-20T10:23:29;25.80;67.00
45435;DHT22;31183;47.404;8.500;2023-07-20T10:25:57;25.80;67.10
45435;DHT22;31183;47.404;8.500;2023-07-20T10:28:27;25.80;65.50
45435;DHT22;31183;47.404;8.500;2023-07-20T10:30:54;25.80;66.70
45435;DHT22;31183;47.404;8.500;2023-07-20T10:33:21;25.90;67.30
45435;DHT22;31183;47.404;8.500;2023-07-20T10:36:01;25.90;66.30
45435;DHT22;31183;47.404;8.500;2023-07-20T10:41:17;26.00;67.30
45435;DHT22;31183;47.404;8.500;2023-07-20T10:43:47;25.90;65.00
45435;DHT22;31183;47.404;8.500;2023-07-20T10:46:14;25.90;64.90
45435;DHT22;31183;47.404;8.500;2023-07-20T10:49:01;25.80;66.30
45435;DHT22;31183;47.404;8.500;2023-07-20T10:51:39;25.80;67.50
45435;DHT22;31183;47.404;8.500;2023-07-20T10:56:57;25.70;65.30
45435;DHT22;31183;47.404;8.500;2023-07-20T11:01:55;25.60;65.10
45435;DHT22;31183;47.404;8.500;2023-07-20T11:04:43;25.60;65.80
45435;DHT22;31183;47.404;8.500;2023-07-20T11:07:10;25.70;66.70
45435;DHT22;31183;47.404;8.500;2023-07-20T11:09:41;25.70;66.50
45435;DHT22;31183;47.404;8.500;2023-07-20T11:14:42;25.70;65.50
45435;DHT22;31183;47.404;8.500;2023-07-20T11:17:13;25.60;66.10
45435;DHT22;31183;47.404;8.500;2023-07-20T11:19:41;25.70;66.10
45435;DHT22;31183;47.404;8.500;2023-07-20T11:22:11;25.70;65.40
45435;DHT22;31183;47.404;8.500;2023-07-20T11:24:40;25.70;67.00
45435;DHT22;31183;47.404;8.500;2023-07-20T11:27:07;25.70;66.80
45435;DHT22;31183;47.404;8.500;2023-07-20T11:29:34;25.70;67.50
45435;DHT22;31183;47.404;8.500;2023-07-20T11:32:02;25.70;67.50
45435;DHT22;31183;47.404;8.500;2023-07-20T11:34:32;25.70;66.90
45435;DHT22;31183;47.404;8.500;2023-07-20T11:36:59;25.70;67.10
45435;DHT22;31183;47.404;8.500;2023-07-20T11:39:29;25.50;65.80
45435;DHT22;31183;47.404;8.500;2023-07-20T11:41:57;25.50;66.90
45435;DHT22;31183;47.404;8.500;2023-07-20T11:44:26;25.40;66.10
45435;DHT22;31183;47.404;8.500;2023-07-20T11:47:04;25.50;65.90
45435;DHT22;31183;47.404;8.500;2023-07-20T11:49:39;25.50;64.80
45435;DHT22;31183;47.404;8.500;2023-07-20T11:52:08;25.50;66.30
45435;DHT22;31183;47.404;8.500;2023-07-20T11:54:35;25.50;66.80
45435;DHT22;31183;47.404;8.500;2023-07-20T11:57:04;25.60;68.00
45435;DHT22;31183;47.404;8.500;2023-07-20T11:59:34;25.50;65.70
45435;DHT22;31183;47.404;8.500;2023-07-20T12:02:03;25.60;64.90
45435;DHT22;31183;47.404;8.500;2023-07-20T12:04:33;25.40;65.10
45435;DHT22;31183;47.404;8.500;2023-07-20T12:07:00;25.30;66.90
45435;DHT22;31183;47.404;8.500;2023-07-20T12:09:27;25.30;66.80
45435;DHT22;31183;47.404;8.500;2023-07-20T12:12:10;25.50;66.80
45435;DHT22;31183;47.404;8.500;2023-07-20T12:14:40;25.50;66.60
45435;DHT22;31183;47.404;8.500;2023-07-20T12:17:08;25.50;65.70
45435;DHT22;31183;47.404;8.500;2023-07-20T12:19:38;25.50;64.70
45435;DHT22;31183;47.404;8.500;2023-07-20T12:22:06;25.40;64.70
45435;DHT22;31183;47.404;8.500;2023-07-20T12:24:33;25.30;66.30
45435;DHT22;31183;47.404;8.500;2023-07-20T12:27:00;25.30;67.70
45435;DHT22;31183;47.404;8.500;2023-07-20T12:29:26;25.40;67.40
45435;DHT22;31183;47.404;8.500;2023-07-20T12:31:53;25.50;65.60
45435;DHT22;31183;47.404;8.500;2023-07-20T12:34:20;25.60;65.80
45435;DHT22;31183;47.404;8.500;2023-07-20T12:36:46;25.60;65.30
45435;DHT22;31183;47.404;8.500;2023-07-20T12:39:13;25.50;66.40
45435;DHT22;31183;47.404;8.500;2023-07-20T12:41:40;25.60;66.80
45435;DHT22;31183;47.404;8.500;2023-07-20T12:44:06;25.50;67.40
45435;DHT22;31183;47.404;8.500;2023-07-20T12:46:33;25.50;67.50
45435;DHT22;31183;47.404;8.500;2023-07-20T12:49:03;25.50;68.50
45435;DHT22;31183;47.404;8.500;2023-07-20T12:51:29;25.40;68.80
45435;DHT22;31183;47.404;8.500;2023-07-20T12:53:56;25.40;68.30
45435;DHT22;31183;47.404;8.500;2023-07-20T12:56:23;25.40;65.50
45435;DHT22;31183;47.404;8.500;2023-07-20T12:58:52;25.30;66.60
45435;DHT22;31183;47.404;8.500;2023-07-20T13:01:19;25.30;67.10
45435;DHT22;31183;47.404;8.500;2023-07-20T13:03:45;25.30;66.30
45435;DHT22;31183;47.404;8.500;2023-07-20T13:06:15;25.10;63.80
45435;DHT22;31183;47.404;8.500;2023-07-20T13:08:44;25.10;65.40
45435;DHT22;31183;47.404;8.500;2023-07-20T13:11:11;24.90;65.30
45435;DHT22;31183;47.404;8.500;2023-07-20T13:13:38;25.00;66.20
45435;DHT22;31183;47.404;8.500;2023-07-20T13:16:04;24.90;65.80
45435;DHT22;31183;47.404;8.500;2023-07-20T13:18:31;24.90;64.10
45435;DHT22;31183;47.404;8.500;2023-07-20T13:20:58;24.90;65.40
45435;DHT22;31183;47.404;8.500;2023-07-20T13:23:24;24.90;66.10
45435;DHT22;31183;47.404;8.500;2023-07-20T13:25:51;24.90;66.80
45435;DHT22;31183;47.404;8.500;2023-07-20T13:28:17;24.90;67.10
45435;DHT22;31183;47.404;8.500;2023-07-20T13:30:44;24.90;67.20
45435;DHT22;31183;47.404;8.500;2023-07-20T13:33:12;24.90;67.70
45435;DHT22;31183;47.404;8.500;2023-07-20T13:35:43;24.90;67.10
45435;DHT22;31183;47.404;8.500;2023-07-20T13:38:13;24.90;67.20
45435;DHT22;31183;47.404;8.500;2023-07-20T13:40:40;24.90;67.60
45435;DHT22;31183;47.404;8.500;2023-07-20T13:43:06;24.90;68.00
45435;DHT22;31183;47.404;8.500;2023-07-20T13:45:33;24.90;68.90
45435;DHT22;31183;47.404;8.500;2023-07-20T13:47:59;24.90;69.10
45435;DHT22;31183;47.404;8.500;2023-07-20T13:50:29;24.90;69.30
45435;DHT22;31183;47.404;8.500;2023-07-20T13:53:08;24.90;69.80
45435;DHT22;31183;47.404;8.500;2023-07-20T13:55:38;24.90;69.40
45435;DHT22;31183;47.404;8.500;2023-07-20T13:58:07;24.90;69.30
45435;DHT22;31183;47.404;8.500;2023-07-20T14:00:38;25.00;69.10
45435;DHT22;31183;47.404;8.500;2023-07-20T14:03:05;25.00;67.50
45435;DHT22;31183;47.404;8.500;2023-07-20T14:05:35;25.00;67.40
45435;DHT22;31183;47.404;8.500;2023-07-20T14:08:04;25.00;67.10
45435;DHT22;31183;47.404;8.500;2023-07-20T14:10:32;25.00;67.60
45435;DHT22;31183;47.404;8.500;2023-07-20T14:12:58;25.00;67.80
45435;DHT22;31183;47.404;8.500;2023-07-20T14:15:25;25.00;68.00
45435;DHT22;31183;47.404;8.500;2023-07-20T14:17:52;25.00;67.10
45435;DHT22;31183;47.404;8.500;2023-07-20T14:20:20;25.00;66.50
45435;DHT22;31183;47.404;8.500;2023-07-20T14:22:48;25.10;66.90
45435;DHT22;31183;47.404;8.500;2023-07-20T14:25:17;25.10;66.00
45435;DHT22;31183;47.404;8.500;2023-07-20T14:27:45;25.10;65.60
45435;DHT22;31183;47.404;8.500;2023-07-20T14:30:12;25.10;65.20
45435;DHT22;31183;47.404;8.500;2023-07-20T14:32:40;25.10;65.70
45435;DHT22;31183;47.404;8.500;2023-07-20T14:35:07;25.20;66.20
45435;DHT22;31183;47.404;8.500;2023-07-20T14:37:36;25.20;66.50
45435;DHT22;31183;47.404;8.500;2023-07-20T14:40:03;25.20;67.30
45435;DHT22;31183;47.404;8.500;2023-07-20T14:42:31;25.20;67.60
45435;DHT22;31183;47.404;8.500;2023-07-20T14:44:59;25.20;67.40
45435;DHT22;31183;47.404;8.500;2023-07-20T14:47:25;25.20;66.20
45435;DHT22;31183;47.404;8.500;2023-07-20T14:49:52;25.20;67.80
45435;DHT22;31183;47.404;8.500;2023-07-20T14:52:19;25.20;67.90
45435;DHT22;31183;47.404;8.500;2023-07-20T14:54:45;25.20;68.90
45435;DHT22;31183;47.404;8.500;2023-07-20T14:57:12;25.20;68.30
45435;DHT22;31183;47.404;8.500;2023-07-20T14:59:42;25.10;68.50
45435;DHT22;31183;47.404;8.500;2023-07-20T15:02:09;25.10;68.70
45435;DHT22;31183;47.404;8.500;2023-07-20T15:04:36;25.10;69.00
45435;DHT22;31183;47.404;8.500;2023-07-20T15:07:02;25.10;69.30
45435;DHT22;31183;47.404;8.500;2023-07-20T15:09:29;25.10;68.90
45435;DHT22;31183;47.404;8.500;2023-07-20T15:11:56;25.10;69.40
45435;DHT22;31183;47.404;8.500;2023-07-20T15:14:23;25.10;69.30
45435;DHT22;31183;47.404;8.500;2023-07-20T15:16:49;25.10;69.00
45435;DHT22;31183;47.404;8.500;2023-07-20T15:19:16;25.10;68.80
45435;DHT22;31183;47.404;8.500;2023-07-20T15:21:43;25.10;68.40
45435;DHT22;31183;47.404;8.500;2023-07-20T15:24:10;25.10;69.10
45435;DHT22;31183;47.404;8.500;2023-07-20T15:26:37;25.10;68.60
45435;DHT22;31183;47.404;8.500;2023-07-20T15:29:03;25.10;65.90
45435;DHT22;31183;47.404;8.500;2023-07-20T15:31:30;25.10;67.60
45435;DHT22;31183;47.404;8.500;2023-07-20T15:33:59;25.10;67.30
45435;DHT22;31183;47.404;8.500;2023-07-20T15:36:26;25.10;68.10
45435;DHT22;31183;47.404;8.500;2023-07-20T15:38:53;25.10;68.40
45435;DHT22;31183;47.404;8.500;2023-07-20T15:41:20;25.10;68.40
45435;DHT22;31183;47.404;8.500;2023-07-20T15:43:47;25.20;69.10
45435;DHT22;31183;47.404;8.500;2023-07-20T15:48:47;25.20;69.80
45435;DHT22;31183;47.404;8.500;2023-07-20T15:51:14;25.20;69.80
45435;DHT22;31183;47.404;8.500;2023-07-20T15:53:41;25.20;69.50
45435;DHT22;31183;47.404;8.500;2023-07-20T15:56:08;25.10;69.80
45435;DHT22;31183;47.404;8.500;2023-07-20T15:58:34;25.10;70.30
45435;DHT22;31183;47.404;8.500;2023-07-20T16:01:01;25.10;70.70
45435;DHT22;31183;47.404;8.500;2023-07-20T16:03:28;25.10;70.70
45435;DHT22;31183;47.404;8.500;2023-07-20T16:06:03;25.10;70.90
45435;DHT22;31183;47.404;8.500;2023-07-20T16:08:31;25.10;71.10